sensor_id;sensor_type;location;lat;lon;timestamp;P1;durP1;ratioP1;P2;durP2;ratioP2
64601;SDS011;68371;42.630;23.192;2023-03-24T00:00:31;10.98;;;5.70;;
64601;SDS011;68371;42.630;23.192;2023-03-24T00:03:00;15.60;;;5.38;;
64601;SDS011;68371;42.630;23.192;2023-03-24T00:05:27;10.70;;;5.35;;
64601;SDS011;68371;42.630;23.192;2023-03-24T00:07:54;19.23;;;8.00;;
64601;SDS011;68371;42.630;23.192;2023-03-24T00:10:23;29.25;;;11.43;;
64601;SDS011;68371;42.630;23.192;2023-03-24T00:12:50;28.17;;;11.32;;
64601;SDS011;68371;42.630;23.192;2023-03-24T00:15:18;24.73;;;10.52;;
64601;SDS011;68371;42.630;23.192;2023-03-24T00:17:48;26.35;;;10.05;;
64601;SDS011;68371;42.630;23.192;2023-03-24T00:20:16;26.23;;;8.32;;
64601;SDS011;68371;42.630;23.192;2023-03-24T00:22:45;17.80;;;6.90;;
64601;SDS011;68371;42.630;23.192;2023-03-24T00:25:15;14.32;;;6.38;;
64601;SDS011;68371;42.630;23.192;2023-03-24T00:27:44;17.27;;;5.85;;
64601;SDS011;68371;42.630;23.192;2023-03-24T00:30:13;15.25;;;6.60;;
64601;SDS011;68371;42.630;23.192;2023-03-24T00:32:40;13.32;;;6.00;;
64601;SDS011;68371;42.630;23.192;2023-03-24T00:35:07;11.48;;;6.30;;
64601;SDS011;68371;42.630;23.192;2023-03-24T00:37:37;13.68;;;6.60;;
64601;SDS011;68371;42.630;23.192;2023-03-24T00:40:06;13.60;;;7.13;;
64601;SDS011;68371;42.630;23.192;2023-03-24T00:42:36;10.43;;;5.67;;
64601;SDS011;68371;42.630;23.192;2023-03-24T00:45:06;8.57;;;4.18;;
64601;SDS011;68371;42.630;23.192;2023-03-24T00:47:34;6.75;;;3.88;;
64601;SDS011;68371;42.630;23.192;2023-03-24T00:50:02;6.55;;;4.05;;
64601;SDS011;68371;42.630;23.192;2023-03-24T00:52:31;9.63;;;4.40;;
64601;SDS011;68371;42.630;23.192;2023-03-24T00:55:01;8.70;;;4.40;;
64601;SDS011;68371;42.630;23.192;2023-03-24T00:57:31;8.60;;;4.45;;
64601;SDS011;68371;42.630;23.192;2023-03-24T01:00:00;11.88;;;4.32;;
64601;SDS011;68371;42.630;23.192;2023-03-24T01:02:37;9.85;;;4.75;;
64601;SDS011;68371;42.630;23.192;2023-03-24T01:05:04;9.25;;;4.78;;
64601;SDS011;68371;42.630;23.192;2023-03-24T01:07:34;10.43;;;4.57;;
64601;SDS011;68371;42.630;23.192;2023-03-24T01:10:01;13.55;;;4.60;;
64601;SDS011;68371;42.630;23.192;2023-03-24T01:12:30;10.60;;;5.32;;
64601;SDS011;68371;42.630;23.192;2023-03-24T01:15:01;13.57;;;5.55;;
64601;SDS011;68371;42.630;23.192;2023-03-24T01:17:31;9.32;;;4.97;;
64601;SDS011;68371;42.630;23.192;2023-03-24T01:20:01;8.35;;;4.40;;
64601;SDS011;68371;42.630;23.192;2023-03-24T01:22:32;8.32;;;4.28;;
64601;SDS011;68371;42.630;23.192;2023-03-24T01:25:01;8.43;;;4.03;;
64601;SDS011;68371;42.630;23.192;2023-03-24T01:27:31;9.13;;;4.00;;
64601;SDS011;68371;42.630;23.192;2023-03-24T01:30:00;10.70;;;3.85;;
64601;SDS011;68371;42.630;23.192;2023-03-24T01:32:27;7.53;;;3.92;;
64601;SDS011;68371;42.630;23.192;2023-03-24T01:34:54;7.97;;;3.97;;
64601;SDS011;68371;42.630;23.192;2023-03-24T01:37:22;6.35;;;3.33;;
64601;SDS011;68371;42.630;23.192;2023-03-24T01:39:49;12.65;;;4.15;;
64601;SDS011;68371;42.630;23.192;2023-03-24T01:42:16;8.50;;;4.00;;
64601;SDS011;68371;42.630;23.192;2023-03-24T01:44:45;7.90;;;3.83;;
64601;SDS011;68371;42.630;23.192;2023-03-24T01:47:12;8.85;;;4.30;;
64601;SDS011;68371;42.630;23.192;2023-03-24T01:49:40;10.10;;;4.57;;
64601;SDS011;68371;42.630;23.192;2023-03-24T01:52:12;11.95;;;5.95;;
64601;SDS011;68371;42.630;23.192;2023-03-24T01:54:43;9.75;;;4.95;;
64601;SDS011;68371;42.630;23.192;2023-03-24T01:57:14;9.50;;;4.88;;
64601;SDS011;68371;42.630;23.192;2023-03-24T01:59:47;13.95;;;5.75;;
64601;SDS011;68371;42.630;23.192;2023-03-24T02:02:16;9.40;;;5.40;;
64601;SDS011;68371;42.630;23.192;2023-03-24T02:04:47;8.70;;;4.13;;
64601;SDS011;68371;42.630;23.192;2023-03-24T02:07:19;9.88;;;4.63;;
64601;SDS011;68371;42.630;23.192;2023-03-24T02:09:58;8.23;;;4.30;;
64601;SDS011;68371;42.630;23.192;2023-03-24T02:12:26;6.93;;;3.90;;
64601;SDS011;68371;42.630;23.192;2023-03-24T02:14:52;8.50;;;4.03;;
64601;SDS011;68371;42.630;23.192;2023-03-24T02:20:29;8.38;;;3.50;;
64601;SDS011;68371;42.630;23.192;2023-03-24T02:26:32;6.82;;;3.63;;
64601;SDS011;68371;42.630;23.192;2023-03-24T02:29:27;6.68;;;3.58;;
64601;SDS011;68371;42.630;23.192;2023-03-24T02:32:17;7.30;;;3.47;;
64601;SDS011;68371;42.630;23.192;2023-03-24T02:38:07;7.03;;;3.60;;
64601;SDS011;68371;42.630;23.192;2023-03-24T02:40:57;10.38;;;3.63;;
64601;SDS011;68371;42.630;23.192;2023-03-24T02:43:32;7.57;;;3.75;;
64601;SDS011;68371;42.630;23.192;2023-03-24T02:46:10;7.60;;;3.80;;
64601;SDS011;68371;42.630;23.192;2023-03-24T02:48:43;7.85;;;4.00;;
64601;SDS011;68371;42.630;23.192;2023-03-24T02:51:24;7.55;;;3.90;;
64601;SDS011;68371;42.630;23.192;2023-03-24T02:53:54;7.63;;;3.92;;
64601;SDS011;68371;42.630;23.192;2023-03-24T02:56:32;10.27;;;4.32;;
64601;SDS011;68371;42.630;23.192;2023-03-24T02:59:08;7.70;;;4.40;;
64601;SDS011;68371;42.630;23.192;2023-03-24T03:01:37;9.95;;;4.10;;
64601;SDS011;68371;42.630;23.192;2023-03-24T03:06:37;8.95;;;3.80;;
64601;SDS011;68371;42.630;23.192;2023-03-24T03:09:06;6.38;;;3.58;;
64601;SDS011;68371;42.630;23.192;2023-03-24T03:11:37;10.13;;;4.07;;
64601;SDS011;68371;42.630;23.192;2023-03-24T03:14:06;9.05;;;4.90;;
64601;SDS011;68371;42.630;23.192;2023-03-24T03:16:36;10.00;;;4.70;;
64601;SDS011;68371;42.630;23.192;2023-03-24T03:19:09;12.57;;;5.40;;
64601;SDS011;68371;42.630;23.192;2023-03-24T03:21:42;10.95;;;5.22;;
64601;SDS011;68371;42.630;23.192;2023-03-24T03:24:11;10.60;;;5.10;;
64601;SDS011;68371;42.630;23.192;2023-03-24T03:26:45;12.98;;;5.45;;
64601;SDS011;68371;42.630;23.192;2023-03-24T03:29:14;13.85;;;6.32;;
64601;SDS011;68371;42.630;23.192;2023-03-24T03:31:47;16.77;;;6.43;;
64601;SDS011;68371;42.630;23.192;2023-03-24T03:34:25;12.88;;;5.85;;
64601;SDS011;68371;42.630;23.192;2023-03-24T03:37:00;13.52;;;5.70;;
64601;SDS011;68371;42.630;23.192;2023-03-24T03:39:35;14.55;;;6.00;;
64601;SDS011;68371;42.630;23.192;2023-03-24T03:42:08;11.75;;;5.60;;
64601;SDS011;68371;42.630;23.192;2023-03-24T03:44:34;10.98;;;5.32;;
64601;SDS011;68371;42.630;23.192;2023-03-24T03:47:01;38.45;;;14.70;;
64601;SDS011;68371;42.630;23.192;2023-03-24T03:49:31;25.98;;;10.40;;
64601;SDS011;68371;42.630;23.192;2023-03-24T03:52:00;17.33;;;7.43;;
64601;SDS011;68371;42.630;23.192;2023-03-24T03:54:30;13.05;;;6.32;;
64601;SDS011;68371;42.630;23.192;2023-03-24T03:56:59;9.70;;;4.70;;
64601;SDS011;68371;42.630;23.192;2023-03-24T03:59:28;10.82;;;4.93;;
64601;SDS011;68371;42.630;23.192;2023-03-24T04:02:01;11.30;;;4.55;;
64601;SDS011;68371;42.630;23.192;2023-03-24T04:07:43;11.73;;;4.55;;
64601;SDS011;68371;42.630;23.192;2023-03-24T04:10:28;10.48;;;5.00;;
64601;SDS011;68371;42.630;23.192;2023-03-24T04:13:07;9.25;;;4.63;;
64601;SDS011;68371;42.630;23.192;2023-03-24T04:15:46;8.88;;;4.07;;
64601;SDS011;68371;42.630;23.192;2023-03-24T04:18:24;7.88;;;4.10;;
64601;SDS011;68371;42.630;23.192;2023-03-24T04:21:03;11.25;;;4.15;;
64601;SDS011;68371;42.630;23.192;2023-03-24T04:23:41;6.32;;;3.58;;
64601;SDS011;68371;42.630;23.192;2023-03-24T04:26:15;8.13;;;4.40;;
64601;SDS011;68371;42.630;23.192;2023-03-24T04:28:53;6.38;;;3.63;;
64601;SDS011;68371;42.630;23.192;2023-03-24T04:31:36;8.60;;;4.10;;
64601;SDS011;68371;42.630;23.192;2023-03-24T04:34:09;8.50;;;4.35;;
64601;SDS011;68371;42.630;23.192;2023-03-24T04:36:42;8.00;;;4.40;;
64601;SDS011;68371;42.630;23.192;2023-03-24T04:39:15;7.15;;;4.28;;
64601;SDS011;68371;42.630;23.192;2023-03-24T04:41:49;10.13;;;4.90;;
64601;SDS011;68371;42.630;23.192;2023-03-24T04:44:17;12.50;;;5.80;;
64601;SDS011;68371;42.630;23.192;2023-03-24T04:46:47;12.20;;;6.03;;
64601;SDS011;68371;42.630;23.192;2023-03-24T04:49:16;14.88;;;6.25;;
64601;SDS011;68371;42.630;23.192;2023-03-24T04:51:43;13.32;;;6.28;;
64601;SDS011;68371;42.630;23.192;2023-03-24T04:54:10;16.25;;;5.97;;
64601;SDS011;68371;42.630;23.192;2023-03-24T04:56:38;16.42;;;6.15;;
64601;SDS011;68371;42.630;23.192;2023-03-24T04:59:10;13.05;;;6.38;;
64601;SDS011;68371;42.630;23.192;2023-03-24T05:01:37;11.98;;;5.90;;
64601;SDS011;68371;42.630;23.192;2023-03-24T05:04:08;10.00;;;5.60;;
